sensor_id;sensor_type;location;lat;lon;timestamp;P1;durP1;ratioP1;P2;durP2;ratioP2
81298;SDS011;70766;53.170;18.160;2024-03-02T00:00:55;104.00;;;35.10;;
81298;SDS011;70766;53.170;18.160;2024-03-02T00:03:43;99.80;;;35.60;;
81298;SDS011;70766;53.170;18.160;2024-03-02T00:06:12;108.00;;;35.30;;
81298;SDS011;70766;53.170;18.160;2024-03-02T00:08:40;104.70;;;36.40;;
81298;SDS011;70766;53.170;18.160;2024-03-02T00:11:08;104.10;;;34.20;;
81298;SDS011;70766;53.170;18.160;2024-03-02T00:13:38;86.40;;;31.60;;
81298;SDS011;70766;53.170;18.160;2024-03-02T00:16:07;102.20;;;36.50;;
81298;SDS011;70766;53.170;18.160;2024-03-02T00:18:35;107.80;;;38.00;;
81298;SDS011;70766;53.170;18.160;2024-03-02T00:21:05;101.10;;;34.40;;
81298;SDS011;70766;53.170;18.160;2024-03-02T00:23:38;102.20;;;33.90;;
81298;SDS011;70766;53.170;18.160;2024-03-02T00:26:10;86.80;;;32.30;;
81298;SDS011;70766;53.170;18.160;2024-03-02T00:28:40;101.80;;;34.70;;
81298;SDS011;70766;53.170;18.160;2024-03-02T00:31:11;97.40;;;33.70;;
81298;SDS011;70766;53.170;18.160;2024-03-02T00:33:41;98.40;;;32.90;;
81298;SDS011;70766;53.170;18.160;2024-03-02T00:36:12;101.00;;;34.90;;
81298;SDS011;70766;53.170;18.160;2024-03-02T00:38:48;102.60;;;34.70;;
81298;SDS011;70766;53.170;18.160;2024-03-02T00:41:25;97.50;;;34.10;;
81298;SDS011;70766;53.170;18.160;2024-03-02T00:44:02;101.30;;;35.80;;
81298;SDS011;70766;53.170;18.160;2024-03-02T00:46:34;101.50;;;34.10;;
81298;SDS011;70766;53.170;18.160;2024-03-02T00:49:04;109.20;;;35.30;;
81298;SDS011;70766;53.170;18.160;2024-03-02T00:51:38;98.80;;;34.80;;
81298;SDS011;70766;53.170;18.160;2024-03-02T00:54:08;102.90;;;34.00;;
81298;SDS011;70766;53.170;18.160;2024-03-02T00:56:38;108.30;;;36.30;;
81298;SDS011;70766;53.170;18.160;2024-03-02T00:59:10;105.50;;;34.90;;
81298;SDS011;70766;53.170;18.160;2024-03-02T01:01:39;113.40;;;35.20;;
81298;SDS011;70766;53.170;18.160;2024-03-02T01:04:07;104.00;;;36.10;;
81298;SDS011;70766;53.170;18.160;2024-03-02T01:06:35;100.20;;;33.10;;
81298;SDS011;70766;53.170;18.160;2024-03-02T01:09:04;110.20;;;36.90;;
81298;SDS011;70766;53.170;18.160;2024-03-02T01:11:32;102.20;;;33.70;;
81298;SDS011;70766;53.170;18.160;2024-03-02T01:14:00;113.00;;;35.80;;
81298;SDS011;70766;53.170;18.160;2024-03-02T01:16:29;100.10;;;33.30;;
81298;SDS011;70766;53.170;18.160;2024-03-02T01:18:57;98.20;;;34.70;;
81298;SDS011;70766;53.170;18.160;2024-03-02T01:21:27;102.80;;;34.10;;
81298;SDS011;70766;53.170;18.160;2024-03-02T01:23:55;95.90;;;32.70;;
81298;SDS011;70766;53.170;18.160;2024-03-02T01:26:23;98.00;;;34.60;;
81298;SDS011;70766;53.170;18.160;2024-03-02T01:28:51;89.00;;;31.20;;
81298;SDS011;70766;53.170;18.160;2024-03-02T01:31:20;92.00;;;31.50;;
81298;SDS011;70766;53.170;18.160;2024-03-02T01:33:48;94.70;;;32.30;;
81298;SDS011;70766;53.170;18.160;2024-03-02T01:36:16;89.20;;;32.80;;
81298;SDS011;70766;53.170;18.160;2024-03-02T01:38:44;94.10;;;33.80;;
81298;SDS011;70766;53.170;18.160;2024-03-02T01:41:14;86.40;;;32.50;;
81298;SDS011;70766;53.170;18.160;2024-03-02T01:43:46;84.30;;;31.60;;
81298;SDS011;70766;53.170;18.160;2024-03-02T01:46:14;92.80;;;32.20;;
81298;SDS011;70766;53.170;18.160;2024-03-02T01:48:42;80.00;;;29.80;;
81298;SDS011;70766;53.170;18.160;2024-03-02T01:51:11;85.00;;;30.70;;
81298;SDS011;70766;53.170;18.160;2024-03-02T01:53:40;81.20;;;30.30;;
81298;SDS011;70766;53.170;18.160;2024-03-02T01:56:08;84.30;;;30.30;;
81298;SDS011;70766;53.170;18.160;2024-03-02T01:58:36;76.80;;;30.50;;
81298;SDS011;70766;53.170;18.160;2024-03-02T02:01:05;79.10;;;29.10;;
81298;SDS011;70766;53.170;18.160;2024-03-02T02:03:33;81.90;;;31.90;;
81298;SDS011;70766;53.170;18.160;2024-03-02T02:06:02;81.00;;;31.30;;
81298;SDS011;70766;53.170;18.160;2024-03-02T02:08:30;83.90;;;31.30;;
81298;SDS011;70766;53.170;18.160;2024-03-02T02:10:58;81.40;;;31.20;;
81298;SDS011;70766;53.170;18.160;2024-03-02T02:13:27;78.40;;;29.80;;
81298;SDS011;70766;53.170;18.160;2024-03-02T02:15:55;80.30;;;30.80;;
81298;SDS011;70766;53.170;18.160;2024-03-02T02:18:23;74.90;;;28.10;;
81298;SDS011;70766;53.170;18.160;2024-03-02T02:20:52;73.10;;;28.90;;
81298;SDS011;70766;53.170;18.160;2024-03-02T02:23:20;71.70;;;28.10;;
81298;SDS011;70766;53.170;18.160;2024-03-02T02:25:49;75.90;;;29.40;;
81298;SDS011;70766;53.170;18.160;2024-03-02T02:28:17;72.30;;;28.60;;
81298;SDS011;70766;53.170;18.160;2024-03-02T02:30:46;74.60;;;28.50;;
81298;SDS011;70766;53.170;18.160;2024-03-02T02:33:15;75.60;;;29.10;;
81298;SDS011;70766;53.170;18.160;2024-03-02T02:35:43;72.80;;;27.50;;
81298;SDS011;70766;53.170;18.160;2024-03-02T02:38:11;74.30;;;28.60;;
81298;SDS011;70766;53.170;18.160;2024-03-02T02:40:40;77.40;;;29.40;;
81298;SDS011;70766;53.170;18.160;2024-03-02T02:43:08;64.50;;;24.90;;
81298;SDS011;70766;53.170;18.160;2024-03-02T02:45:36;67.50;;;26.30;;
81298;SDS011;70766;53.170;18.160;2024-03-02T02:48:04;71.80;;;27.10;;
81298;SDS011;70766;53.170;18.160;2024-03-02T02:50:35;67.20;;;26.10;;
81298;SDS011;70766;53.170;18.160;2024-03-02T02:53:03;65.60;;;26.50;;
81298;SDS011;70766;53.170;18.160;2024-03-02T02:55:31;62.10;;;25.00;;
81298;SDS011;70766;53.170;18.160;2024-03-02T02:57:59;70.30;;;27.50;;
81298;SDS011;70766;53.170;18.160;2024-03-02T03:00:27;53.40;;;21.60;;
81298;SDS011;70766;53.170;18.160;2024-03-02T03:02:56;68.70;;;26.40;;
81298;SDS011;70766;53.170;18.160;2024-03-02T03:05:24;63.90;;;27.10;;
81298;SDS011;70766;53.170;18.160;2024-03-02T03:07:52;66.40;;;26.40;;
81298;SDS011;70766;53.170;18.160;2024-03-02T03:10:20;68.90;;;27.40;;
81298;SDS011;70766;53.170;18.160;2024-03-02T03:12:51;59.10;;;25.00;;
81298;SDS011;70766;53.170;18.160;2024-03-02T03:15:19;59.50;;;25.40;;
81298;SDS011;70766;53.170;18.160;2024-03-02T03:17:48;63.20;;;26.40;;
81298;SDS011;70766;53.170;18.160;2024-03-02T03:20:16;68.30;;;27.50;;
81298;SDS011;70766;53.170;18.160;2024-03-02T03:22:44;64.70;;;26.40;;
81298;SDS011;70766;53.170;18.160;2024-03-02T03:25:13;67.90;;;27.50;;
81298;SDS011;70766;53.170;18.160;2024-03-02T03:27:41;65.70;;;26.20;;
81298;SDS011;70766;53.170;18.160;2024-03-02T03:30:10;63.60;;;27.50;;
81298;SDS011;70766;53.170;18.160;2024-03-02T03:32:38;61.10;;;25.10;;
81298;SDS011;70766;53.170;18.160;2024-03-02T03:35:07;62.20;;;27.20;;
81298;SDS011;70766;53.170;18.160;2024-03-02T03:37:35;69.60;;;26.90;;
81298;SDS011;70766;53.170;18.160;2024-03-02T03:40:04;60.50;;;25.30;;
81298;SDS011;70766;53.170;18.160;2024-03-02T03:42:39;57.50;;;25.20;;
81298;SDS011;70766;53.170;18.160;2024-03-02T03:45:07;55.50;;;25.40;;
81298;SDS011;70766;53.170;18.160;2024-03-02T03:47:36;51.20;;;22.90;;
81298;SDS011;70766;53.170;18.160;2024-03-02T03:50:05;56.00;;;24.10;;
81298;SDS011;70766;53.170;18.160;2024-03-02T03:52:35;55.40;;;23.90;;
81298;SDS011;70766;53.170;18.160;2024-03-02T03:55:04;52.10;;;22.50;;
81298;SDS011;70766;53.170;18.160;2024-03-02T03:57:33;52.30;;;23.10;;
81298;SDS011;70766;53.170;18.160;2024-03-02T04:00:03;47.70;;;22.80;;
81298;SDS011;70766;53.170;18.160;2024-03-02T04:02:38;48.70;;;21.90;;
81298;SDS011;70766;53.170;18.160;2024-03-02T04:05:07;52.20;;;23.60;;
81298;SDS011;70766;53.170;18.160;2024-03-02T04:07:39;48.60;;;21.80;;
81298;SDS011;70766;53.170;18.160;2024-03-02T04:10:09;47.00;;;20.70;;
81298;SDS011;70766;53.170;18.160;2024-03-02T04:12:38;51.70;;;23.00;;
81298;SDS011;70766;53.170;18.160;2024-03-02T04:15:07;46.10;;;19.90;;
81298;SDS011;70766;53.170;18.160;2024-03-02T04:17:36;50.50;;;21.40;;
81298;SDS011;70766;53.170;18.160;2024-03-02T04:20:05;44.50;;;20.20;;
81298;SDS011;70766;53.170;18.160;2024-03-02T04:22:33;47.20;;;22.10;;
81298;SDS011;70766;53.170;18.160;2024-03-02T04:25:03;45.70;;;22.30;;
81298;SDS011;70766;53.170;18.160;2024-03-02T04:27:35;47.60;;;21.40;;
81298;SDS011;70766;53.170;18.160;2024-03-02T04:30:04;43.80;;;21.30;;
81298;SDS011;70766;53.170;18.160;2024-03-02T04:32:33;49.20;;;21.80;;
81298;SDS011;70766;53.170;18.160;2024-03-02T04:35:01;48.40;;;21.00;;
81298;SDS011;70766;53.170;18.160;2024-03-02T04:37:30;46.40;;;21.40;;
81298;SDS011;70766;53.170;18.160;2024-03-02T04:39:58;46.30;;;20.10;;
81298;SDS011;70766;53.170;18.160;2024-03-02T04:42:27;47.00;;;20.30;;
81298;SDS011;70766;53.170;18.160;2024-03-02T04:44:55;47.00;;;21.10;;
81298;SDS011;70766;53.170;18.160;2024-03-02T04:47:23;46.50;;;21.70;;
81298;SDS011;70766;53.170;18.160;2024-03-02T04:49:51;49.60;;;21.30;;
81298;SDS011;70766;53.170;18.160;2024-03-02T04:52:19;45.70;;;22.80;;
81298;SDS011;70766;53.170;18.160;2024-03-02T04:54:47;43.40;;;20.20;;
81298;SDS011;70766;53.170;18.160;2024-03-02T04:57:36;46.20;;;22.00;;
81298;SDS011;70766;53.170;18.160;2024-03-02T05:00:04;46.10;;;21.80;;
81298;SDS011;70766;53.170;18.160;2024-03-02T05:02:35;47.60;;;22.90;;
81298;SDS011;70766;53.170;18.160;2024-03-02T05:05:03;49.60;;;22.20;;
81298;SDS011;70766;53.170;18.160;2024-03-02T05:07:31;48.70;;;22.20;;
81298;SDS011;70766;53.170;18.160;2024-03-02T05:09:59;50.70;;;22.70;;
81298;SDS011;70766;53.170;18.160;2024-03-02T05:12:28;47.80;;;21.80;;
81298;SDS011;70766;53.170;18.160;2024-03-02T05:15:13;44.60;;;20.30;;
81298;SDS011;70766;53.170;18.160;2024-03-02T05:17:43;46.20;;;21.40;;
81298;SDS011;70766;53.170;18.160;2024-03-02T05:20:11;45.80;;;19.90;;
81298;SDS011;70766;53.170;18.160;2024-03-02T05:22:39;46.90;;;21.60;;
81298;SDS011;70766;53.170;18.160;2024-03-02T05:25:08;45.60;;;21.10;;
81298;SDS011;70766;53.170;18.160;2024-03-02T05:27:38;48.70;;;22.70;;
81298;SDS011;70766;53.170;18.160;2024-03-02T05:30:07;46.00;;;21.80;;
81298;SDS011;70766;53.170;18.160;2024-03-02T05:32:35;49.10;;;22.90;;
81298;SDS011;70766;53.170;18.160;2024-03-02T05:35:04;47.10;;;21.60;;
81298;SDS011;70766;53.170;18.160;2024-03-02T05:37:33;43.30;;;20.30;;
81298;SDS011;70766;53.170;18.160;2024-03-02T05:40:02;48.10;;;21.80;;
81298;SDS011;70766;53.170;18.160;2024-03-02T05:42:30;47.40;;;21.60;;
81298;SDS011;70766;53.170;18.160;2024-03-02T05:44:58;42.60;;;20.10;;
81298;SDS011;70766;53.170;18.160;2024-03-02T05:47:27;42.80;;;20.80;;
81298;SDS011;70766;53.170;18.160;2024-03-02T05:49:56;46.30;;;20.50;;
81298;SDS011;70766;53.170;18.160;2024-03-02T05:52:24;46.30;;;21.60;;
81298;SDS011;70766;53.170;18.160;2024-03-02T05:54:52;45.30;;;20.70;;
81298;SDS011;70766;53.170;18.160;2024-03-02T05:57:20;43.40;;;21.30;;
81298;SDS011;70766;53.170;18.160;2024-03-02T06:00:07;46.40;;;21.10;;
81298;SDS011;70766;53.170;18.160;2024-03-02T06:02:39;42.70;;;20.30;;
81298;SDS011;70766;53.170;18.160;2024-03-02T06:05:08;47.80;;;22.20;;
81298;SDS011;70766;53.170;18.160;2024-03-02T06:07:36;44.10;;;20.40;;
81298;SDS011;70766;53.170;18.160;2024-03-02T06:10:05;51.10;;;23.30;;
81298;SDS011;70766;53.170;18.160;2024-03-02T06:12:39;43.00;;;20.30;;
81298;SDS011;70766;53.170;18.160;2024-03-02T06:15:07;45.50;;;21.60;;
81298;SDS011;70766;53.170;18.160;2024-03-02T06:17:36;47.30;;;22.50;;
81298;SDS011;70766;53.170;18.160;2024-03-02T06:20:04;46.50;;;21.30;;
81298;SDS011;70766;53.170;18.160;2024-03-02T06:22:36;42.40;;;20.40;;
81298;SDS011;70766;53.170;18.160;2024-03-02T06:25:05;44.60;;;21.40;;
81298;SDS011;70766;53.170;18.160;2024-03-02T06:27:33;42.70;;;20.70;;
81298;SDS011;70766;53.170;18.160;2024-03-02T06:30:02;46.70;;;21.80;;
81298;SDS011;70766;53.170;18.160;2024-03-02T06:32:32;38.40;;;18.90;;
81298;SDS011;70766;53.170;18.160;2024-03-02T06:35:00;36.20;;;17.20;;
81298;SDS011;70766;53.170;18.160;2024-03-02T06:37:28;46.00;;;20.80;;
81298;SDS011;70766;53.170;18.160;2024-03-02T06:39:57;48.10;;;22.20;;
81298;SDS011;70766;53.170;18.160;2024-03-02T06:42:25;48.90;;;22.10;;
81298;SDS011;70766;53.170;18.160;2024-03-02T06:44:53;42.60;;;20.40;;
81298;SDS011;70766;53.170;18.160;2024-03-02T06:47:22;44.20;;;18.90;;
81298;SDS011;70766;53.170;18.160;2024-03-02T06:49:50;44.20;;;20.50;;
81298;SDS011;70766;53.170;18.160;2024-03-02T06:52:19;47.30;;;21.70;;
81298;SDS011;70766;53.170;18.160;2024-03-02T06:54:51;43.40;;;19.10;;
81298;SDS011;70766;53.170;18.160;2024-03-02T06:57:20;45.80;;;21.30;;
81298;SDS011;70766;53.170;18.160;2024-03-02T06:59:50;46.70;;;21.20;;
81298;SDS011;70766;53.170;18.160;2024-03-02T07:02:20;38.80;;;19.50;;
81298;SDS011;70766;53.170;18.160;2024-03-02T07:04:48;45.00;;;20.70;;
81298;SDS011;70766;53.170;18.160;2024-03-02T07:07:16;41.90;;;19.80;;
81298;SDS011;70766;53.170;18.160;2024-03-02T07:09:45;48.20;;;21.00;;
81298;SDS011;70766;53.170;18.160;2024-03-02T07:12:13;43.00;;;20.40;;
81298;SDS011;70766;53.170;18.160;2024-03-02T07:14:41;42.60;;;20.10;;
81298;SDS011;70766;53.170;18.160;2024-03-02T07:17:39;44.90;;;21.10;;
81298;SDS011;70766;53.170;18.160;2024-03-02T07:20:07;42.00;;;19.40;;
81298;SDS011;70766;53.170;18.160;2024-03-02T07:22:36;41.50;;;20.90;;
81298;SDS011;70766;53.170;18.160;2024-03-02T07:25:10;44.20;;;19.80;;
81298;SDS011;70766;53.170;18.160;2024-03-02T07:27:58;42.40;;;19.70;;
81298;SDS011;70766;53.170;18.160;2024-03-02T07:30:26;40.20;;;20.30;;
81298;SDS011;70766;53.170;18.160;2024-03-02T07:32:56;40.60;;;20.30;;
81298;SDS011;70766;53.170;18.160;2024-03-02T07:35:25;41.10;;;20.30;;
81298;SDS011;70766;53.170;18.160;2024-03-02T07:38:02;41.90;;;20.20;;
81298;SDS011;70766;53.170;18.160;2024-03-02T07:40:30;39.60;;;20.60;;
81298;SDS011;70766;53.170;18.160;2024-03-02T07:42:59;38.80;;;20.10;;
81298;SDS011;70766;53.170;18.160;2024-03-02T07:45:28;39.90;;;20.20;;
81298;SDS011;70766;53.170;18.160;2024-03-02T07:47:56;40.70;;;20.10;;
81298;SDS011;70766;53.170;18.160;2024-03-02T07:50:24;40.40;;;19.50;;
81298;SDS011;70766;53.170;18.160;2024-03-02T07:52:52;40.40;;;20.10;;
81298;SDS011;70766;53.170;18.160;2024-03-02T07:55:20;40.00;;;21.00;;
81298;SDS011;70766;53.170;18.160;2024-03-02T07:57:48;40.00;;;19.70;;
81298;SDS011;70766;53.170;18.160;2024-03-02T08:00:17;39.30;;;20.20;;
81298;SDS011;70766;53.170;18.160;2024-03-02T08:02:45;38.00;;;20.80;;
81298;SDS011;70766;53.170;18.160;2024-03-02T08:05:14;35.70;;;19.50;;
81298;SDS011;70766;53.170;18.160;2024-03-02T08:07:43;36.90;;;18.70;;
81298;SDS011;70766;53.170;18.160;2024-03-02T08:10:12;38.20;;;19.60;;
81298;SDS011;70766;53.170;18.160;2024-03-02T08:12:41;33.70;;;18.70;;
81298;SDS011;70766;53.170;18.160;2024-03-02T08:15:09;34.60;;;19.30;;
81298;SDS011;70766;53.170;18.160;2024-03-02T08:17:38;37.00;;;19.90;;
81298;SDS011;70766;53.170;18.160;2024-03-02T08:20:12;35.40;;;19.30;;
81298;SDS011;70766;53.170;18.160;2024-03-02T08:22:41;35.30;;;20.00;;
81298;SDS011;70766;53.170;18.160;2024-03-02T08:25:09;35.70;;;18.80;;
81298;SDS011;70766;53.170;18.160;2024-03-02T08:27:40;41.40;;;22.60;;
81298;SDS011;70766;53.170;18.160;2024-03-02T08:30:09;35.50;;;19.80;;
81298;SDS011;70766;53.170;18.160;2024-03-02T08:32:38;34.80;;;18.90;;
81298;SDS011;70766;53.170;18.160;2024-03-02T08:35:08;35.20;;;19.70;;
81298;SDS011;70766;53.170;18.160;2024-03-02T08:37:37;34.70;;;19.00;;
81298;SDS011;70766;53.170;18.160;2024-03-02T08:40:07;33.20;;;18.90;;
81298;SDS011;70766;53.170;18.160;2024-03-02T08:42:36;34.10;;;19.50;;
81298;SDS011;70766;53.170;18.160;2024-03-02T08:45:04;34.90;;;18.90;;
81298;SDS011;70766;53.170;18.160;2024-03-02T08:47:33;34.40;;;20.00;;
81298;SDS011;70766;53.170;18.160;2024-03-02T08:50:02;36.10;;;19.40;;
81298;SDS011;70766;53.170;18.160;2024-03-02T08:52:31;33.00;;;19.70;;
81298;SDS011;70766;53.170;18.160;2024-03-02T08:54:59;33.80;;;19.00;;
81298;SDS011;70766;53.170;18.160;2024-03-02T08:57:28;37.00;;;19.60;;
81298;SDS011;70766;53.170;18.160;2024-03-02T08:59:56;33.00;;;18.10;;
81298;SDS011;70766;53.170;18.160;2024-03-02T09:02:24;34.00;;;18.80;;
81298;SDS011;70766;53.170;18.160;2024-03-02T09:04:53;36.10;;;20.00;;
81298;SDS011;70766;53.170;18.160;2024-03-02T09:07:21;35.90;;;18.30;;
81298;SDS011;70766;53.170;18.160;2024-03-02T09:09:49;35.90;;;19.90;;
81298;SDS011;70766;53.170;18.160;2024-03-02T09:12:18;36.10;;;19.70;;
81298;SDS011;70766;53.170;18.160;2024-03-02T09:14:47;32.30;;;19.00;;
81298;SDS011;70766;53.170;18.160;2024-03-02T09:17:16;34.00;;;19.30;;
81298;SDS011;70766;53.170;18.160;2024-03-02T09:19:47;32.10;;;18.70;;
81298;SDS011;70766;53.170;18.160;2024-03-02T09:22:15;34.00;;;19.40;;
81298;SDS011;70766;53.170;18.160;2024-03-02T09:24:44;32.60;;;18.80;;
81298;SDS011;70766;53.170;18.160;2024-03-02T09:27:12;33.40;;;20.10;;
81298;SDS011;70766;53.170;18.160;2024-03-02T09:29:40;32.90;;;18.40;;
81298;SDS011;70766;53.170;18.160;2024-03-02T09:32:11;34.60;;;19.50;;
81298;SDS011;70766;53.170;18.160;2024-03-02T09:34:41;34.70;;;19.90;;
81298;SDS011;70766;53.170;18.160;2024-03-02T09:37:09;33.50;;;18.70;;
81298;SDS011;70766;53.170;18.160;2024-03-02T09:39:37;32.90;;;19.10;;
81298;SDS011;70766;53.170;18.160;2024-03-02T09:42:06;34.00;;;18.30;;
81298;SDS011;70766;53.170;18.160;2024-03-02T09:44:34;37.10;;;19.00;;
81298;SDS011;70766;53.170;18.160;2024-03-02T09:47:02;32.10;;;18.80;;
81298;SDS011;70766;53.170;18.160;2024-03-02T09:49:31;33.40;;;18.50;;
81298;SDS011;70766;53.170;18.160;2024-03-02T09:51:59;32.90;;;18.60;;
81298;SDS011;70766;53.170;18.160;2024-03-02T09:54:29;30.90;;;17.90;;
81298;SDS011;70766;53.170;18.160;2024-03-02T09:56:57;30.90;;;17.40;;
81298;SDS011;70766;53.170;18.160;2024-03-02T09:59:26;35.70;;;19.70;;
81298;SDS011;70766;53.170;18.160;2024-03-02T10:01:56;32.90;;;19.40;;
81298;SDS011;70766;53.170;18.160;2024-03-02T10:04:29;34.40;;;19.40;;
81298;SDS011;70766;53.170;18.160;2024-03-02T10:09:43;32.60;;;18.30;;
81298;SDS011;70766;53.170;18.160;2024-03-02T10:12:14;32.10;;;20.20;;
81298;SDS011;70766;53.170;18.160;2024-03-02T10:14:43;30.80;;;17.70;;
81298;SDS011;70766;53.170;18.160;2024-03-02T10:17:13;32.70;;;18.20;;
81298;SDS011;70766;53.170;18.160;2024-03-02T10:19:43;31.70;;;18.10;;
81298;SDS011;70766;53.170;18.160;2024-03-02T10:22:11;29.20;;;17.60;;
81298;SDS011;70766;53.170;18.160;2024-03-02T10:24:40;30.80;;;18.50;;
81298;SDS011;70766;53.170;18.160;2024-03-02T10:27:16;33.30;;;17.80;;
81298;SDS011;70766;53.170;18.160;2024-03-02T10:29:45;30.50;;;18.60;;
81298;SDS011;70766;53.170;18.160;2024-03-02T10:32:15;31.30;;;18.90;;
81298;SDS011;70766;53.170;18.160;2024-03-02T10:34:44;30.50;;;18.90;;
81298;SDS011;70766;53.170;18.160;2024-03-02T10:37:15;27.60;;;17.40;;
81298;SDS011;70766;53.170;18.160;2024-03-02T10:39:46;29.00;;;17.30;;
81298;SDS011;70766;53.170;18.160;2024-03-02T10:42:15;29.00;;;16.80;;
81298;SDS011;70766;53.170;18.160;2024-03-02T10:44:45;31.90;;;18.50;;
81298;SDS011;70766;53.170;18.160;2024-03-02T10:47:15;32.90;;;16.80;;
81298;SDS011;70766;53.170;18.160;2024-03-02T10:49:45;29.70;;;17.90;;
81298;SDS011;70766;53.170;18.160;2024-03-02T10:52:15;30.00;;;18.40;;
81298;SDS011;70766;53.170;18.160;2024-03-02T10:54:45;29.90;;;18.40;;
81298;SDS011;70766;53.170;18.160;2024-03-02T10:57:14;29.60;;;18.40;;
81298;SDS011;70766;53.170;18.160;2024-03-02T10:59:53;28.30;;;18.20;;
81298;SDS011;70766;53.170;18.160;2024-03-02T11:02:25;26.80;;;16.80;;
81298;SDS011;70766;53.170;18.160;2024-03-02T11:04:56;31.90;;;18.50;;
81298;SDS011;70766;53.170;18.160;2024-03-02T11:07:27;31.00;;;19.70;;
81298;SDS011;70766;53.170;18.160;2024-03-02T11:09:58;28.40;;;17.50;;
81298;SDS011;70766;53.170;18.160;2024-03-02T11:12:29;29.40;;;18.40;;
81298;SDS011;70766;53.170;18.160;2024-03-02T11:14:58;30.80;;;19.40;;
81298;SDS011;70766;53.170;18.160;2024-03-02T11:17:28;29.90;;;18.30;;
81298;SDS011;70766;53.170;18.160;2024-03-02T11:19:57;29.50;;;18.70;;
81298;SDS011;70766;53.170;18.160;2024-03-02T11:22:26;31.20;;;18.20;;
81298;SDS011;70766;53.170;18.160;2024-03-02T11:24:55;31.20;;;19.30;;
81298;SDS011;70766;53.170;18.160;2024-03-02T11:27:58;34.30;;;19.30;;
81298;SDS011;70766;53.170;18.160;2024-03-02T11:33:05;31.00;;;19.00;;
81298;SDS011;70766;53.170;18.160;2024-03-02T11:35:42;30.60;;;18.60;;
81298;SDS011;70766;53.170;18.160;2024-03-02T11:38:17;30.70;;;18.50;;
81298;SDS011;70766;53.170;18.160;2024-03-02T11:40:47;29.70;;;18.80;;
81298;SDS011;70766;53.170;18.160;2024-03-02T11:43:16;31.10;;;18.50;;
81298;SDS011;70766;53.170;18.160;2024-03-02T11:45:44;29.20;;;19.10;;
81298;SDS011;70766;53.170;18.160;2024-03-02T11:48:14;31.40;;;19.40;;
81298;SDS011;70766;53.170;18.160;2024-03-02T11:50:47;31.60;;;18.00;;
81298;SDS011;70766;53.170;18.160;2024-03-02T11:53:17;35.50;;;19.50;;
81298;SDS011;70766;53.170;18.160;2024-03-02T11:55:47;29.90;;;19.20;;
81298;SDS011;70766;53.170;18.160;2024-03-02T11:58:17;32.60;;;19.30;;
81298;SDS011;70766;53.170;18.160;2024-03-02T12:00:46;32.80;;;18.60;;
81298;SDS011;70766;53.170;18.160;2024-03-02T12:03:15;30.00;;;18.30;;
81298;SDS011;70766;53.170;18.160;2024-03-02T12:05:43;30.60;;;18.80;;
81298;SDS011;70766;53.170;18.160;2024-03-02T12:08:11;32.10;;;19.90;;
81298;SDS011;70766;53.170;18.160;2024-03-02T12:10:40;33.40;;;18.10;;
81298;SDS011;70766;53.170;18.160;2024-03-02T12:13:09;32.00;;;20.50;;
81298;SDS011;70766;53.170;18.160;2024-03-02T12:15:39;30.80;;;19.80;;
81298;SDS011;70766;53.170;18.160;2024-03-02T12:18:08;37.40;;;22.40;;
81298;SDS011;70766;53.170;18.160;2024-03-02T12:20:38;38.00;;;22.80;;
81298;SDS011;70766;53.170;18.160;2024-03-02T12:23:12;38.60;;;25.30;;
81298;SDS011;70766;53.170;18.160;2024-03-02T12:25:41;34.00;;;19.80;;
81298;SDS011;70766;53.170;18.160;2024-03-02T12:28:10;33.40;;;19.30;;
81298;SDS011;70766;53.170;18.160;2024-03-02T12:30:39;43.80;;;24.80;;
81298;SDS011;70766;53.170;18.160;2024-03-02T12:33:07;36.00;;;21.70;;
81298;SDS011;70766;53.170;18.160;2024-03-02T12:35:36;44.40;;;25.10;;
81298;SDS011;70766;53.170;18.160;2024-03-02T12:38:04;45.50;;;25.20;;
81298;SDS011;70766;53.170;18.160;2024-03-02T12:40:33;41.50;;;25.20;;
81298;SDS011;70766;53.170;18.160;2024-03-02T12:43:01;45.50;;;25.20;;
81298;SDS011;70766;53.170;18.160;2024-03-02T12:45:30;44.30;;;24.60;;
81298;SDS011;70766;53.170;18.160;2024-03-02T12:47:59;46.80;;;27.10;;
81298;SDS011;70766;53.170;18.160;2024-03-02T12:50:30;47.50;;;27.10;;
81298;SDS011;70766;53.170;18.160;2024-03-02T12:52:58;53.80;;;29.80;;
81298;SDS011;70766;53.170;18.160;2024-03-02T12:55:26;50.00;;;28.30;;
81298;SDS011;70766;53.170;18.160;2024-03-02T12:57:57;44.80;;;24.10;;
81298;SDS011;70766;53.170;18.160;2024-03-02T13:00:27;48.20;;;26.70;;
81298;SDS011;70766;53.170;18.160;2024-03-02T13:02:58;52.20;;;27.10;;
81298;SDS011;70766;53.170;18.160;2024-03-02T13:05:30;52.70;;;29.00;;
81298;SDS011;70766;53.170;18.160;2024-03-02T13:08:00;47.90;;;26.10;;
81298;SDS011;70766;53.170;18.160;2024-03-02T13:10:31;48.80;;;25.90;;
81298;SDS011;70766;53.170;18.160;2024-03-02T13:13:00;50.60;;;26.50;;
81298;SDS011;70766;53.170;18.160;2024-03-02T13:15:28;51.50;;;28.00;;
81298;SDS011;70766;53.170;18.160;2024-03-02T13:17:58;49.20;;;26.30;;
81298;SDS011;70766;53.170;18.160;2024-03-02T13:20:31;55.10;;;27.10;;
81298;SDS011;70766;53.170;18.160;2024-03-02T13:23:00;52.80;;;28.90;;
81298;SDS011;70766;53.170;18.160;2024-03-02T13:25:29;48.40;;;26.30;;
81298;SDS011;70766;53.170;18.160;2024-03-02T13:28:00;58.60;;;27.90;;
81298;SDS011;70766;53.170;18.160;2024-03-02T13:30:29;54.30;;;29.00;;
81298;SDS011;70766;53.170;18.160;2024-03-02T13:32:58;56.90;;;27.50;;
81298;SDS011;70766;53.170;18.160;2024-03-02T13:35:26;50.20;;;26.50;;
81298;SDS011;70766;53.170;18.160;2024-03-02T13:37:54;53.40;;;26.60;;
81298;SDS011;70766;53.170;18.160;2024-03-02T13:40:22;53.80;;;27.90;;
81298;SDS011;70766;53.170;18.160;2024-03-02T13:42:51;50.30;;;27.10;;
81298;SDS011;70766;53.170;18.160;2024-03-02T13:45:22;57.70;;;27.20;;
81298;SDS011;70766;53.170;18.160;2024-03-02T13:47:50;54.20;;;27.80;;
81298;SDS011;70766;53.170;18.160;2024-03-02T13:50:20;48.90;;;27.30;;
81298;SDS011;70766;53.170;18.160;2024-03-02T13:52:48;50.40;;;27.60;;
81298;SDS011;70766;53.170;18.160;2024-03-02T13:55:28;53.50;;;27.50;;
81298;SDS011;70766;53.170;18.160;2024-03-02T13:57:56;53.70;;;28.50;;
81298;SDS011;70766;53.170;18.160;2024-03-02T14:00:24;52.70;;;26.80;;
81298;SDS011;70766;53.170;18.160;2024-03-02T14:02:54;54.60;;;26.50;;
81298;SDS011;70766;53.170;18.160;2024-03-02T14:05:23;50.40;;;26.10;;
81298;SDS011;70766;53.170;18.160;2024-03-02T14:08:04;52.20;;;26.40;;
81298;SDS011;70766;53.170;18.160;2024-03-02T14:10:32;51.70;;;26.80;;
81298;SDS011;70766;53.170;18.160;2024-03-02T14:13:01;53.10;;;25.90;;
81298;SDS011;70766;53.170;18.160;2024-03-02T14:15:29;50.60;;;25.30;;
81298;SDS011;70766;53.170;18.160;2024-03-02T14:17:58;53.80;;;26.20;;
81298;SDS011;70766;53.170;18.160;2024-03-02T14:20:26;52.00;;;25.40;;
81298;SDS011;70766;53.170;18.160;2024-03-02T14:22:54;50.80;;;25.40;;
81298;SDS011;70766;53.170;18.160;2024-03-02T14:25:22;52.80;;;25.50;;
81298;SDS011;70766;53.170;18.160;2024-03-02T14:27:50;52.50;;;25.50;;